Time;durP1;ratioP1;P1;durP2;ratioP2;P2;SDS_P1;SDS_P2;PMS_P1;PMS_P2;Temp;Humidity;BMP_temperature;BMP_pressure;BME280_temperature;BME280_humidity;BME280_pressure;Samples;Min_cycle;Max_cycle;Signal;HPM_P1;HPM_P2
2023/05/02 00:00:02;;;;;;;;;;;;;;;11.73;78.47;100222.09;5112979;28;19958;-83
2023/05/02 00:02:28;;;;;;;;;;;;;;;11.71;78.80;100224.75;5112991;28;19916;-84
2023/05/02 00:04:53;;;;;;;;;;;;;;;11.67;79.37;100224.81;5094696;28;20282;-84
2023/05/02 00:07:19;;;;;;;;;;;;;;;11.59;80.12;100222.25;5112164;28;19951;-84
2023/05/02 00:09:45;;;;;;;;;;;;;;;11.64;80.14;100223.06;5094602;28;19912;-84
2023/05/02 00:12:10;;;;;;;;;;;;;;;11.81;79.30;100231.69;5112779;28;20371;-85
2023/05/02 00:14:35;;;;;;;;;;;;;;;11.94;78.87;100232.47;5094728;28;19951;-85
2023/05/02 00:17:01;;;;;;;;;;;;;;;11.95;78.55;100233.31;5112213;28;19963;-85
2023/05/02 00:19:26;;;;;;;;;;;;;;;12.09;77.80;100231.38;5094483;28;20412;-85
2023/05/02 00:21:52;;;;;;;;;;;;;;;12.07;77.27;100235.81;5112602;28;19931;-85
2023/05/02 00:24:17;;;;;;;;;;;;;;;12.13;77.27;100235.75;5113010;28;19970;-85
2023/05/02 00:26:43;;;;;;;;;;;;;;;12.14;76.62;100237.50;5093823;28;19919;-85
2023/05/02 00:29:08;;;;;;;;;;;;;;;12.26;76.37;100241.75;5094184;28;20035;-85
2023/05/02 00:31:34;;;;;;;;;;;;;;;12.26;76.00;100236.44;5112888;28;19939;-83
2023/05/02 00:34:00;;;;;;;;;;;;;;;12.15;76.34;100241.88;5111552;28;19916;-83
2023/05/02 00:36:26;;;;;;;;;;;;;;;12.23;75.65;100247.06;5111928;28;20097;-84
2023/05/02 00:38:51;;;;;;;;;;;;;;;12.06;76.29;100254.34;5093858;28;19911;-83
2023/05/02 00:41:16;;;;;;;;;;;;;;;12.17;76.00;100253.34;5112589;28;19916;-83
2023/05/02 00:43:42;;;;;;;;;;;;;;;11.95;75.69;100259.75;5112646;28;19912;-85
2023/05/02 00:46:08;;;;;;;;;;;;;;;11.60;77.04;100258.34;5112347;28;19916;-83
2023/05/02 00:48:34;;;;;;;;;;;;;;;11.35;77.88;100258.56;5111658;28;19920;-83
2023/05/02 00:51:01;;;;;;;;;;;;;;;11.17;79.44;100262.28;5112158;28;19930;-84
2023/05/02 00:53:26;;;;;;;;;;;;;;;11.13;79.73;100270.22;5092768;28;20342;-84
2023/05/02 00:55:53;;;;;;;;;;;;;;;11.22;79.37;100259.59;5111183;28;20010;-83
2023/05/02 00:58:18;;;;;;;;;;;;;;;11.07;80.02;100261.44;5110906;28;19916;-83
2023/05/02 01:00:58;;;;;;;;;;;;;;;11.05;79.84;100265.00;5111742;28;20389;-83
2023/05/02 01:03:35;;;;;;;;;;;;;;;10.69;81.93;100261.72;5111824;28;19926;-84
2023/05/02 01:06:01;;;;;;;;;;;;;;;10.54;82.11;100268.88;5111482;28;19916;-84
2023/05/02 01:08:39;;;;;;;;;;;;;;;10.60;82.24;100265.31;5112083;28;19960;-83
2023/05/02 01:11:10;;;;;;;;;;;;;;;10.55;82.59;100261.81;5111792;28;19960;-84
2023/05/02 01:13:37;;;;;;;;;;;;;;;10.68;82.19;100265.28;5112327;28;20005;-83
2023/05/02 01:16:04;;;;;;;;;;;;;;;10.81;81.37;100269.56;5111458;28;20294;-84
2023/05/02 01:18:31;;;;;;;;;;;;;;;10.72;81.31;100265.25;5093096;28;19984;-83
2023/05/02 01:20:59;;;;;;;;;;;;;;;10.69;80.77;100270.53;5111481;28;19998;-83
2023/05/02 01:23:31;;;;;;;;;;;;;;;10.67;80.93;100269.66;5111507;28;19911;-83
2023/05/02 01:26:09;;;;;;;;;;;;;;;10.53;80.92;100280.31;5110824;28;20321;-83
2023/05/02 01:28:43;;;;;;;;;;;;;;;10.32;81.19;100265.44;5111210;28;20002;-82
2023/05/02 01:31:10;;;;;;;;;;;;;;;10.34;81.01;100270.75;5111180;28;20013;-82
2023/05/02 01:33:35;;;;;;;;;;;;;;;10.36;80.20;100264.59;5111353;28;19916;-82
2023/05/02 01:36:02;;;;;;;;;;;;;;;10.15;80.59;100239.16;5111008;28;19971;-82
2023/05/02 01:38:28;;;;;;;;;;;;;;;10.29;80.11;100268.09;5111044;28;19919;-83
2023/05/02 01:40:55;;;;;;;;;;;;;;;10.35;79.50;100269.88;5110842;28;19922;-83
2023/05/02 01:43:22;;;;;;;;;;;;;;;10.55;78.65;100275.00;5111174;28;19982;-83
2023/05/02 01:45:49;;;;;;;;;;;;;;;10.81;77.57;100277.47;5111138;28;19912;-83
2023/05/02 01:48:15;;;;;;;;;;;;;;;10.76;75.89;100274.00;5110802;28;20381;-83
2023/05/02 01:50:43;;;;;;;;;;;;;;;10.56;75.13;100274.13;5110419;28;19915;-82
2023/05/02 01:53:10;;;;;;;;;;;;;;;10.84;75.35;100274.81;5111352;28;19958;-83
2023/05/02 01:55:37;;;;;;;;;;;;;;;11.00;74.99;100272.97;5092366;28;19915;-84
2023/05/02 01:58:04;;;;;;;;;;;;;;;10.88;74.94;100273.06;5111159;28;19938;-83
2023/05/02 02:00:30;;;;;;;;;;;;;;;10.64;76.59;100279.38;5110713;28;19922;-83
2023/05/02 02:02:57;;;;;;;;;;;;;;;10.87;75.46;100282.72;5110454;28;19915;-83
2023/05/02 02:05:23;;;;;;;;;;;;;;;10.85;75.24;100287.13;5110931;28;19954;-83
2023/05/02 02:07:48;;;;;;;;;;;;;;;10.91;74.71;100283.59;5111181;28;19974;-83
2023/05/02 02:10:14;;;;;;;;;;;;;;;10.69;75.02;100277.56;5111209;28;19946;-83
2023/05/02 02:12:41;;;;;;;;;;;;;;;10.47;75.66;100277.72;5110359;28;20395;-84
2023/05/02 02:15:17;;;;;;;;;;;;;;;10.29;75.58;100280.41;5110762;28;19911;-84
2023/05/02 02:17:45;;;;;;;;;;;;;;;10.36;76.46;100279.50;5092050;28;19916;-83
2023/05/02 02:20:11;;;;;;;;;;;;;;;10.30;76.33;100269.84;5110850;28;19919;-83
2023/05/02 02:22:38;;;;;;;;;;;;;;;10.20;75.85;100284.81;5109732;28;19915;-82
2023/05/02 02:25:05;;;;;;;;;;;;;;;10.31;75.65;100279.50;5110970;28;19918;-81
2023/05/02 02:27:30;;;;;;;;;;;;;;;10.43;74.89;100273.34;5110709;28;20381;-83
2023/05/02 02:29:55;;;;;;;;;;;;;;;10.12;75.24;100280.47;5110713;28;19965;-84
2023/05/02 02:32:21;;;;;;;;;;;;;;;10.19;75.37;100284.81;5110067;28;19916;-83
2023/05/02 02:34:46;;;;;;;;;;;;;;;10.44;74.58;100285.66;5110507;28;20397;-83
2023/05/02 02:37:16;;;;;;;;;;;;;;;10.42;74.58;100281.25;5111001;28;19912;-83
2023/05/02 02:39:45;;;;;;;;;;;;;;;10.47;74.47;100282.09;5110780;28;20006;-83
2023/05/02 02:42:16;;;;;;;;;;;;;;;10.34;74.10;100282.16;5110136;28;19977;-82
2023/05/02 02:44:59;;;;;;;;;;;;;;;10.36;74.87;100276.88;5110532;28;20054;-82
2023/05/02 02:47:31;;;;;;;;;;;;;;;10.32;75.10;100278.63;5110529;28;19952;-83
2023/05/02 02:50:15;;;;;;;;;;;;;;;10.35;76.39;100285.69;5110732;28;19947;-83
2023/05/02 02:52:43;;;;;;;;;;;;;;;10.60;75.77;100285.53;5109407;28;20381;-82
2023/05/02 02:55:28;;;;;;;;;;;;;;;10.56;76.14;100289.97;5102736;28;19919;-83
2023/05/02 02:58:00;;;;;;;;;;;;;;;10.47;76.85;100288.25;5007452;28;19919;-82
2023/05/02 03:00:27;;;;;;;;;;;;;;;10.53;77.27;100290.88;5008380;28;20304;-82
2023/05/02 03:02:52;;;;;;;;;;;;;;;10.79;76.06;100294.22;5007821;28;20001;-84
2023/05/02 03:05:18;;;;;;;;;;;;;;;10.81;75.73;100298.59;5005702;28;20004;-84
2023/05/02 03:07:43;;;;;;;;;;;;;;;10.66;75.61;100296.94;5007613;28;19952;-83
2023/05/02 03:10:10;;;;;;;;;;;;;;;10.69;76.08;100299.56;5007646;28;19979;-83
2023/05/02 03:12:36;;;;;;;;;;;;;;;10.54;76.90;100297.00;5008141;28;20285;-83
2023/05/02 03:15:10;;;;;;;;;;;;;;;10.62;77.21;100296.97;5006120;28;19922;-83
2023/05/02 03:17:36;;;;;;;;;;;;;;;10.63;76.89;100293.44;5007858;28;20403;-83
2023/05/02 03:20:02;;;;;;;;;;;;;;;10.71;76.66;100297.78;5007617;28;19920;-83
2023/05/02 03:22:27;;;;;;;;;;;;;;;10.82;76.25;100303.00;5002322;28;19985;-83
2023/05/02 03:24:52;;;;;;;;;;;;;;;10.82;76.30;100302.13;4999127;28;20483;-83
2023/05/02 03:27:18;;;;;;;;;;;;;;;10.85;76.05;100307.41;4991856;28;20471;-84
2023/05/02 03:29:43;;;;;;;;;;;;;;;10.69;77.20;100304.84;4991204;28;19910;-85
2023/05/02 03:32:09;;;;;;;;;;;;;;;10.78;76.67;100311.81;4974771;28;19917;-85
2023/05/02 03:34:34;;;;;;;;;;;;;;;10.75;76.23;100319.75;5008736;28;20073;-86
2023/05/02 03:36:59;;;;;;;;;;;;;;;10.52;76.75;100327.81;5107223;28;20023;-83
2023/05/02 03:39:25;;;;;;;;;;;;;;;10.43;77.03;100331.34;5113766;28;19915;-83
2023/05/02 03:41:50;;;;;;;;;;;;;;;10.53;76.54;100337.47;5111405;28;19972;-83
2023/05/02 03:44:15;;;;;;;;;;;;;;;10.67;76.11;100334.75;5113815;28;19968;-83
2023/05/02 03:46:41;;;;;;;;;;;;;;;10.60;76.25;100343.56;5111413;28;20285;-84
2023/05/02 03:49:07;;;;;;;;;;;;;;;10.64;76.30;100347.97;5112834;28;19916;-84
2023/05/02 03:51:32;;;;;;;;;;;;;;;10.79;76.00;100349.66;5108023;28;19916;-82
2023/05/02 03:53:59;;;;;;;;;;;;;;;10.80;75.29;100360.19;5112665;28;19920;-82
2023/05/02 03:56:24;;;;;;;;;;;;;;;10.73;75.78;100359.34;5112317;28;19964;-85
2023/05/02 03:58:49;;;;;;;;;;;;;;;10.76;75.81;100358.44;5108277;28;19920;-85
2023/05/02 04:01:15;;;;;;;;;;;;;;;10.84;75.45;100359.28;5090099;28;19915;-85
2023/05/02 04:03:41;;;;;;;;;;;;;;;10.92;75.39;100359.22;5091310;28;19923;-85
2023/05/02 04:06:06;;;;;;;;;;;;;;;10.95;75.72;100358.34;5112223;28;19931;-87
2023/05/02 04:08:31;;;;;;;;;;;;;;;11.08;75.31;100357.41;5094485;28;20018;-84
2023/05/02 04:10:57;;;;;;;;;;;;;;;11.21;74.83;100360.81;5110219;28;20399;-85
2023/05/02 04:13:22;;;;;;;;;;;;;;;11.24;74.79;100358.16;5110754;28;19918;-87
2023/05/02 04:15:47;;;;;;;;;;;;;;;11.50;74.56;100363.25;5091881;28;19924;-86
2023/05/02 04:18:13;;;;;;;;;;;;;;;11.59;74.38;100372.88;5102064;28;19970;-86
2023/05/02 04:20:38;;;;;;;;;;;;;;;11.59;73.81;100368.44;5093222;28;20018;-86
2023/05/02 04:23:04;;;;;;;;;;;;;;;11.53;74.05;100368.50;5111307;28;20396;-88
2023/05/02 04:25:29;;;;;;;;;;;;;;;11.56;74.73;100375.53;5090253;28;19923;-87
2023/05/02 04:27:55;;;;;;;;;;;;;;;11.78;74.32;100377.09;5082952;28;19919;-88
2023/05/02 04:30:20;;;;;;;;;;;;;;;11.88;74.22;100379.66;5093594;28;19915;-87
2023/05/02 04:32:46;;;;;;;;;;;;;;;11.90;74.11;100385.81;5093886;28;20006;-86
2023/05/02 04:35:11;;;;;;;;;;;;;;;11.91;74.82;100385.81;5091298;28;19990;-87
2023/05/02 04:37:36;;;;;;;;;;;;;;;11.96;74.72;100384.00;5092940;28;20015;-88
2023/05/02 04:40:02;;;;;;;;;;;;;;;12.11;74.71;100387.38;5092939;28;20367;-88
2023/05/02 04:42:27;;;;;;;;;;;;;;;12.16;74.75;100381.16;5093839;28;19969;-86
2023/05/02 04:44:53;;;;;;;;;;;;;;;12.20;74.85;100381.13;5111389;28;20290;-86
2023/05/02 04:47:18;;;;;;;;;;;;;;;12.42;75.07;100381.75;5112473;28;19911;-86
2023/05/02 04:49:44;;;;;;;;;;;;;;;12.64;74.28;100375.31;5112440;28;19919;-84
2023/05/02 04:52:09;;;;;;;;;;;;;;;12.68;73.56;100373.50;5111097;28;20322;-85
2023/05/02 04:54:35;;;;;;;;;;;;;;;12.85;73.30;100370.63;5112093;28;20330;-86
2023/05/02 04:57:02;;;;;;;;;;;;;;;13.03;73.31;100378.31;5109420;28;19969;-87
2023/05/02 04:59:28;;;;;;;;;;;;;;;13.15;71.84;100385.22;5092117;28;19938;-87
2023/05/02 05:01:53;;;;;;;;;;;;;;;13.32;71.71;100384.13;5089745;28;20350;-87
2023/05/02 05:04:19;;;;;;;;;;;;;;;13.57;70.63;100384.63;5097059;28;19916;-86
2023/05/02 05:06:46;;;;;;;;;;;;;;;13.86;70.38;100392.09;5092456;28;19923;-86
2023/05/02 05:09:11;;;;;;;;;;;;;;;13.58;69.61;100391.69;5111934;28;20010;-86
2023/05/02 05:11:38;;;;;;;;;;;;;;;13.88;68.75;100390.28;5111567;28;20413;-85
2023/05/02 05:14:03;;;;;;;;;;;;;;;14.15;67.00;100396.88;5091854;28;20010;-85
2023/05/02 05:16:29;;;;;;;;;;;;;;;14.29;65.63;100390.44;5108238;28;20003;-85
2023/05/02 05:18:54;;;;;;;;;;;;;;;14.72;65.20;100397.56;5110096;28;20018;-85
2023/05/02 05:21:20;;;;;;;;;;;;;;;15.09;63.00;100394.13;5093225;28;19912;-85
2023/05/02 05:23:46;;;;;;;;;;;;;;;15.04;62.11;100394.22;5111511;28;19919;-84
2023/05/02 05:26:12;;;;;;;;;;;;;;;15.32;59.67;100396.25;5111775;28;19918;-84
2023/05/02 05:28:38;;;;;;;;;;;;;;;15.55;58.38;100397.47;5092459;28;20014;-85
2023/05/02 05:31:06;;;;;;;;;;;;;;;15.70;58.22;100398.88;5109133;28;19915;-85
2023/05/02 05:33:32;;;;;;;;;;;;;;;15.95;57.97;100404.47;5110208;28;20405;-84
2023/05/02 05:36:02;;;;;;;;;;;;;;;16.12;57.72;100412.03;5110584;28;19923;-84
2023/05/02 05:38:27;;;;;;;;;;;;;;;16.25;57.06;100408.13;5106353;28;19912;-84
2023/05/02 05:40:53;;;;;;;;;;;;;;;16.51;57.20;100403.84;5080920;28;19974;-85
2023/05/02 05:43:18;;;;;;;;;;;;;;;16.41;57.05;100375.75;5091566;28;20030;-87
2023/05/02 05:45:44;;;;;;;;;;;;;;;16.82;56.96;100409.19;5092598;28;19965;-86
2023/05/02 05:48:09;;;;;;;;;;;;;;;17.11;56.15;100407.44;5092372;28;19916;-85
2023/05/02 05:50:34;;;;;;;;;;;;;;;17.29;55.36;100410.47;5092090;28;19911;-85
2023/05/02 05:53:00;;;;;;;;;;;;;;;17.17;53.11;100414.41;5110671;28;19915;-85
2023/05/02 05:55:26;;;;;;;;;;;;;;;16.86;52.74;100409.09;5110751;28;19994;-84
2023/05/02 05:57:51;;;;;;;;;;;;;;;16.71;51.63;100411.25;5091763;28;20374;-84
2023/05/02 06:00:17;;;;;;;;;;;;;;;16.92;51.24;100412.47;5109882;28;19988;-84
2023/05/02 06:02:43;;;;;;;;;;;;;;;17.22;51.53;100411.59;5110046;28;19919;-84
2023/05/02 06:05:08;;;;;;;;;;;;;;;17.15;50.69;100413.56;5109829;28;20313;-84
2023/05/02 06:07:33;;;;;;;;;;;;;;;17.40;50.16;100415.47;5109836;28;19992;-85
2023/05/02 06:09:59;;;;;;;;;;;;;;;17.58;50.21;100414.00;5110329;28;20377;-84
2023/05/02 06:12:24;;;;;;;;;;;;;;;17.70;50.49;100418.94;5110096;28;20354;-84
2023/05/02 06:14:51;;;;;;;;;;;;;;;18.02;49.77;100415.22;5109770;28;20422;-85
2023/05/02 06:17:16;;;;;;;;;;;;;;;18.15;48.59;100410.34;5109909;28;19916;-85
2023/05/02 06:19:42;;;;;;;;;;;;;;;18.22;46.79;100411.84;5109899;28;19912;-84
2023/05/02 06:22:07;;;;;;;;;;;;;;;18.15;45.83;100409.44;5109458;28;19918;-84
2023/05/02 06:24:32;;;;;;;;;;;;;;;18.23;46.33;100410.06;5109855;28;19912;-84
2023/05/02 06:26:58;;;;;;;;;;;;;;;18.30;47.04;100408.03;5091696;28;19988;-84
2023/05/02 06:29:23;;;;;;;;;;;;;;;18.72;44.84;100402.94;5091165;28;20375;-84
2023/05/02 06:31:50;;;;;;;;;;;;;;;18.88;44.84;100405.94;5091447;28;19916;-83
2023/05/02 06:34:15;;;;;;;;;;;;;;;19.31;45.48;100396.22;5091429;28;20328;-84
2023/05/02 06:36:40;;;;;;;;;;;;;;;19.41;43.53;100391.38;5109499;28;19998;-84
2023/05/02 06:39:06;;;;;;;;;;;;;;;19.19;42.36;100391.38;5110021;28;19950;-84
2023/05/02 06:41:32;;;;;;;;;;;;;;;19.03;43.37;100399.13;5109642;28;20001;-84
2023/05/02 06:43:58;;;;;;;;;;;;;;;19.14;44.40;100394.22;5109471;28;19919;-86
2023/05/02 06:46:27;;;;;;;;;;;;;;;19.26;43.16;100394.66;5091587;28;19907;-86
2023/05/02 06:48:52;;;;;;;;;;;;;;;19.49;43.67;100391.06;5109794;28;19912;-83
2023/05/02 06:51:20;;;;;;;;;;;;;;;19.71;42.93;100387.50;5109648;28;19918;-84
2023/05/02 06:53:45;;;;;;;;;;;;;;;20.05;41.79;100384.28;5091451;28;20313;-85
2023/05/02 06:56:10;;;;;;;;;;;;;;;19.79;41.49;100383.59;5093427;28;19912;-84
2023/05/02 06:58:36;;;;;;;;;;;;;;;20.46;41.94;100386.06;5113726;28;20010;-84
2023/05/02 07:01:01;;;;;;;;;;;;;;;20.44;41.84;100387.97;5113842;28;19930;-84
2023/05/02 07:03:26;;;;;;;;;;;;;;;20.37;40.53;100377.53;5094650;28;19923;-84
2023/05/02 07:05:52;;;;;;;;;;;;;;;20.43;40.83;100375.50;5113980;28;20274;-86
2023/05/02 07:08:17;;;;;;;;;;;;;;;20.51;41.54;100382.25;5099392;28;19920;-85
2023/05/02 07:10:42;;;;;;;;;;;;;;;20.60;41.01;100382.75;5105114;28;19943;-85
2023/05/02 07:13:08;;;;;;;;;;;;;;;20.35;41.61;100378.50;5125304;28;20002;-83
2023/05/02 07:15:33;;;;;;;;;;;;;;;20.61;41.83;100382.69;5122309;28;19918;-85
2023/05/02 07:17:59;;;;;;;;;;;;;;;20.65;42.10;100381.66;5108334;28;19912;-86
2023/05/02 07:20:24;;;;;;;;;;;;;;;21.21;40.72;100371.88;5108410;28;20289;-84
2023/05/02 07:22:50;;;;;;;;;;;;;;;21.25;40.18;100373.44;5107952;28;19918;-85
2023/05/02 07:25:15;;;;;;;;;;;;;;;21.33;39.23;100364.16;5102697;28;20022;-86
2023/05/02 07:27:40;;;;;;;;;;;;;;;21.47;38.75;100358.97;5095942;28;19907;-84
2023/05/02 07:30:06;;;;;;;;;;;;;;;21.65;39.43;100367.94;5095330;28;19919;-86
2023/05/02 07:32:31;;;;;;;;;;;;;;;21.94;37.74;100365.59;5093232;28;20034;-85
2023/05/02 07:34:57;;;;;;;;;;;;;;;22.09;38.40;100371.97;5112861;28;19915;-85
2023/05/02 07:37:22;;;;;;;;;;;;;;;22.19;35.78;100370.56;5112385;28;20006;-86
2023/05/02 07:39:47;;;;;;;;;;;;;;;22.02;37.94;100363.38;5113547;28;19955;-85
2023/05/02 07:42:13;;;;;;;;;;;;;;;21.88;35.66;100339.06;5113158;28;20029;-85
2023/05/02 07:44:38;;;;;;;;;;;;;;;21.24;35.85;100354.72;5113826;28;19912;-84
2023/05/02 07:47:03;;;;;;;;;;;;;;;20.91;35.76;100353.63;5094774;28;19912;-84
2023/05/02 07:49:30;;;;;;;;;;;;;;;21.33;36.06;100348.91;5113638;28;19912;-85
2023/05/02 07:51:55;;;;;;;;;;;;;;;21.79;34.25;100352.00;5113491;28;20298;-86
2023/05/02 07:54:21;;;;;;;;;;;;;;;21.74;34.35;100355.88;5095097;28;19946;-85
2023/05/02 07:56:47;;;;;;;;;;;;;;;21.77;33.67;100351.22;5095149;28;19938;-85
2023/05/02 07:59:13;;;;;;;;;;;;;;;21.51;34.41;100349.00;5094779;28;20270;-85
2023/05/02 08:01:41;;;;;;;;;;;;;;;21.69;35.12;100344.50;5094684;28;19918;-86
2023/05/02 08:04:09;;;;;;;;;;;;;;;21.74;35.78;100353.19;5094218;28;20363;-85
2023/05/02 08:06:34;;;;;;;;;;;;;;;21.93;33.50;100351.28;5094497;28;19973;-85
2023/05/02 08:09:00;;;;;;;;;;;;;;;22.07;31.67;100341.66;5095304;28;19947;-84
2023/05/02 08:11:25;;;;;;;;;;;;;;;22.43;32.80;100336.19;5113718;28;19923;-84
2023/05/02 08:13:51;;;;;;;;;;;;;;;22.20;32.71;100337.38;5112987;28;20393;-85
2023/05/02 08:16:16;;;;;;;;;;;;;;;22.05;30.96;100335.50;5094002;28;19911;-85
2023/05/02 08:18:41;;;;;;;;;;;;;;;22.29;30.15;100339.56;5094275;28;20433;-85
2023/05/02 08:21:07;;;;;;;;;;;;;;;22.48;32.47;100335.94;5094730;28;19916;-86
2023/05/02 08:23:32;;;;;;;;;;;;;;;21.96;31.28;100331.47;5094595;28;19919;-84
2023/05/02 08:25:58;;;;;;;;;;;;;;;22.08;31.87;100335.34;5094557;28;20301;-84
2023/05/02 08:28:23;;;;;;;;;;;;;;;22.08;30.99;100327.28;5094434;28;19949;-85
2023/05/02 08:30:49;;;;;;;;;;;;;;;22.39;31.00;100325.69;5112632;28;19996;-85
2023/05/02 08:33:14;;;;;;;;;;;;;;;22.49;30.16;100319.72;5112508;28;20026;-86
2023/05/02 08:35:39;;;;;;;;;;;;;;;22.26;31.41;100312.88;5111933;28;19911;-87
2023/05/02 08:38:05;;;;;;;;;;;;;;;22.46;31.66;100317.19;5112481;28;19911;-86
2023/05/02 08:40:34;;;;;;;;;;;;;;;22.50;29.34;100309.81;5094318;28;19912;-84
2023/05/02 08:43:00;;;;;;;;;;;;;;;22.15;30.34;100304.50;5093772;28;19918;-82
2023/05/02 08:45:25;;;;;;;;;;;;;;;22.31;31.95;100308.13;5111490;28;20289;-87
2023/05/02 08:47:51;;;;;;;;;;;;;;;22.47;31.80;100307.31;5111393;28;19911;-84
2023/05/02 08:50:18;;;;;;;;;;;;;;;22.08;30.36;100308.47;5111045;28;20420;-82
2023/05/02 08:52:44;;;;;;;;;;;;;;;22.14;30.53;100298.25;5111056;28;19911;-86
2023/05/02 08:55:11;;;;;;;;;;;;;;;21.93;31.69;100302.09;5111757;28;19911;-83
2023/05/02 08:57:37;;;;;;;;;;;;;;;22.03;31.06;100303.34;5092619;28;20346;-84
2023/05/02 09:00:03;;;;;;;;;;;;;;;22.04;29.59;100298.84;5111149;28;19912;-88
2023/05/02 09:02:51;;;;;;;;;;;;;;;22.34;30.43;100299.91;5110452;28;19916;-83
2023/05/02 09:05:19;;;;;;;;;;;;;;;22.19;30.55;100298.00;5110406;28;19920;-84
2023/05/02 09:07:46;;;;;;;;;;;;;;;21.82;30.02;100297.28;5110904;28;19908;-85
2023/05/02 09:10:13;;;;;;;;;;;;;;;21.71;29.77;100289.78;5111136;28;20342;-86
2023/05/02 09:12:38;;;;;;;;;;;;;;;21.70;29.63;100292.53;5097428;28;19915;-85
2023/05/02 09:15:11;;;;;;;;;;;;;;;21.43;28.36;100283.13;5107432;28;19922;-84
2023/05/02 09:17:43;;;;;;;;;;;;;;;21.51;28.46;100281.91;5086940;28;19916;-83
2023/05/02 09:20:10;;;;;;;;;;;;;;;22.03;31.03;100279.19;5097423;28;20363;-84
2023/05/02 09:22:36;;;;;;;;;;;;;;;21.85;27.31;100278.31;5105442;28;19915;-83
2023/05/02 09:25:03;;;;;;;;;;;;;;;21.98;28.96;100276.75;5109296;28;19919;-84
2023/05/02 09:27:28;;;;;;;;;;;;;;;21.96;29.04;100270.56;5089672;28;19955;-83
2023/05/02 09:30:14;;;;;;;;;;;;;;;21.70;28.85;100271.06;5090663;28;20404;-87
2023/05/02 09:32:46;;;;;;;;;;;;;;;21.49;28.75;100268.56;5088117;28;19916;-85
2023/05/02 09:35:12;;;;;;;;;;;;;;;21.73;28.59;100265.53;5076185;28;20311;-85
2023/05/02 09:37:37;;;;;;;;;;;;;;;21.90;29.75;100260.13;5108626;28;20167;-84
2023/05/02 09:40:06;;;;;;;;;;;;;;;21.63;29.22;100265.16;5089881;28;20320;-85
2023/05/02 09:42:31;;;;;;;;;;;;;;;21.85;30.19;100269.41;5109976;28;19955;-82
2023/05/02 09:44:57;;;;;;;;;;;;;;;21.91;28.76;100261.88;5110688;28;19958;-82
2023/05/02 09:47:25;;;;;;;;;;;;;;;21.70;28.80;100250.44;5110036;28;19912;-86
2023/05/02 09:49:51;;;;;;;;;;;;;;;21.99;28.86;100248.91;5092180;28;19913;-83
2023/05/02 09:52:18;;;;;;;;;;;;;;;21.85;28.13;100248.78;5110201;28;19961;-84
2023/05/02 09:54:45;;;;;;;;;;;;;;;21.90;29.67;100254.78;5110926;28;19912;-85
2023/05/02 09:57:10;;;;;;;;;;;;;;;22.29;28.61;100240.16;5111118;28;19912;-84
2023/05/02 09:59:36;;;;;;;;;;;;;;;22.07;29.18;100239.56;5110512;28;20308;-83
2023/05/02 10:02:02;;;;;;;;;;;;;;;22.17;29.72;100235.44;5110376;28;19967;-81
2023/05/02 10:04:29;;;;;;;;;;;;;;;22.27;29.99;100222.38;5110005;28;19923;-82
2023/05/02 10:06:55;;;;;;;;;;;;;;;22.32;30.10;100226.56;5091588;28;20309;-83
2023/05/02 10:09:20;;;;;;;;;;;;;;;22.11;29.26;100230.41;5110054;28;19912;-83
2023/05/02 10:11:48;;;;;;;;;;;;;;;22.28;29.70;100214.22;5110434;28;19983;-84
2023/05/02 10:14:15;;;;;;;;;;;;;;;22.26;29.69;100217.94;5110314;28;20274;-84
2023/05/02 10:16:53;;;;;;;;;;;;;;;21.89;28.59;100218.16;5110077;28;19972;-84
2023/05/02 10:19:22;;;;;;;;;;;;;;;21.88;29.86;100202.13;5109606;28;19912;-82
2023/05/02 10:21:48;;;;;;;;;;;;;;;22.09;29.85;100200.94;5110045;28;19918;-85
2023/05/02 10:24:14;;;;;;;;;;;;;;;21.93;30.52;100208.94;5091818;28;20313;-82
2023/05/02 10:26:40;;;;;;;;;;;;;;;21.84;30.62;100214.81;5110431;28;19919;-84
2023/05/02 10:29:05;;;;;;;;;;;;;;;21.92;29.76;100203.66;5110832;28;20381;-84
2023/05/02 10:31:36;;;;;;;;;;;;;;;22.10;30.05;100197.28;5113843;28;20028;-82
2023/05/02 10:34:02;;;;;;;;;;;;;;;22.32;29.43;100197.00;5114149;28;19912;-84
2023/05/02 10:36:27;;;;;;;;;;;;;;;22.04;29.00;100191.41;5113833;28;19991;-84
2023/05/02 10:38:53;;;;;;;;;;;;;;;21.99;29.83;100186.28;5095851;28;19912;-83
2023/05/02 10:41:21;;;;;;;;;;;;;;;21.90;30.04;100190.31;5113529;28;20280;-82
2023/05/02 10:43:48;;;;;;;;;;;;;;;22.43;30.22;100190.16;5114302;28;19918;-84
2023/05/02 10:46:48;;;;;;;;;;;;;;;22.45;30.07;100188.25;5113867;28;19926;-82
2023/05/02 10:49:14;;;;;;;;;;;;;;;22.31;30.36;100184.53;5011426;28;19913;-83
2023/05/02 10:51:40;;;;;;;;;;;;;;;22.20;29.36;100186.91;5010887;28;20510;-83
2023/05/02 10:54:15;;;;;;;;;;;;;;;22.30;28.82;100184.56;5011664;28;19925;-84
2023/05/02 10:56:58;;;;;;;;;;;;;;;22.21;28.70;100185.94;5010770;28;20441;-85
2023/05/02 10:59:27;;;;;;;;;;;;;;;22.41;28.91;100181.31;4994476;28;19913;-84
2023/05/02 11:01:52;;;;;;;;;;;;;;;22.49;31.13;100181.75;5011036;28;20482;-83
2023/05/02 11:04:18;;;;;;;;;;;;;;;22.81;29.69;100177.19;5010960;28;19956;-86
2023/05/02 11:06:55;;;;;;;;;;;;;;;22.51;28.99;100178.03;5010824;28;19988;-84
2023/05/02 11:09:20;;;;;;;;;;;;;;;22.10;28.91;100167.72;5010614;28;19913;-85
2023/05/02 11:11:47;;;;;;;;;;;;;;;22.00;29.18;100171.91;4994564;28;20315;-84
2023/05/02 11:14:24;;;;;;;;;;;;;;;22.23;29.27;100176.00;5010681;28;20346;-84
2023/05/02 11:16:58;;;;;;;;;;;;;;;22.39;28.40;100157.22;5011096;28;20291;-84
2023/05/02 11:19:27;;;;;;;;;;;;;;;22.40;28.04;100163.44;5010194;28;20088;-85
2023/05/02 11:21:53;;;;;;;;;;;;;;;22.13;28.68;100161.34;4994073;28;19949;-83
2023/05/02 11:24:40;;;;;;;;;;;;;;;22.35;30.44;100155.66;5109253;28;20002;-84
2023/05/02 11:27:23;;;;;;;;;;;;;;;22.18;29.68;100164.63;5113572;28;20286;-81
2023/05/02 11:29:53;;;;;;;;;;;;;;;21.77;27.66;100157.91;5113127;28;19911;-84
2023/05/02 11:32:18;;;;;;;;;;;;;;;21.70;28.88;100163.69;5112952;28;19920;-83
2023/05/02 11:34:43;;;;;;;;;;;;;;;21.87;29.85;100162.78;5113658;28;19919;-85
2023/05/02 11:37:12;;;;;;;;;;;;;;;21.97;30.22;100154.13;5113360;28;20311;-85
2023/05/02 11:39:37;;;;;;;;;;;;;;;21.73;29.33;100152.78;5112737;28;19911;-84
2023/05/02 11:42:02;;;;;;;;;;;;;;;21.99;31.10;100136.09;5112112;28;19935;-84
2023/05/02 11:44:28;;;;;;;;;;;;;;;22.16;30.24;100147.72;5112801;28;20312;-85
2023/05/02 11:46:54;;;;;;;;;;;;;;;22.17;29.47;100133.34;5112628;28;20329;-84
2023/05/02 11:49:19;;;;;;;;;;;;;;;22.35;30.02;100142.22;5112327;28;20384;-84
2023/05/02 11:51:45;;;;;;;;;;;;;;;22.52;29.75;100134.06;5112963;28;19918;-85
2023/05/02 11:54:17;;;;;;;;;;;;;;;22.57;29.37;100131.13;5112857;28;19907;-83
2023/05/02 11:56:42;;;;;;;;;;;;;;;22.63;28.81;100138.81;5112408;28;20395;-84
2023/05/02 11:59:07;;;;;;;;;;;;;;;22.48;28.20;100123.59;5112795;28;20007;-85
2023/05/02 12:01:33;;;;;;;;;;;;;;;22.87;29.04;100123.03;5112381;28;20301;-85
2023/05/02 12:04:09;;;;;;;;;;;;;;;22.63;29.56;100121.81;5113076;28;20385;-83
2023/05/02 12:06:34;;;;;;;;;;;;;;;22.51;30.27;100099.22;5112539;28;19968;-84
2023/05/02 12:09:12;;;;;;;;;;;;;;;22.53;27.98;100103.53;5112621;28;19915;-84
2023/05/02 12:11:38;;;;;;;;;;;;;;;22.77;28.40;100107.56;5111949;28;20305;-83
2023/05/02 12:14:04;;;;;;;;;;;;;;;23.25;28.88;100105.59;5112054;28;19907;-84
2023/05/02 12:16:30;;;;;;;;;;;;;;;23.18;29.13;100098.84;5111724;28;20354;-86
2023/05/02 12:18:58;;;;;;;;;;;;;;;22.99;27.53;100102.63;5112312;28;19914;-86
2023/05/02 12:21:24;;;;;;;;;;;;;;;22.73;28.21;100089.88;5111396;28;19912;-84
2023/05/02 12:23:49;;;;;;;;;;;;;;;23.23;29.71;100103.00;5112117;28;19923;-85
2023/05/02 12:26:20;;;;;;;;;;;;;;;23.26;26.33;100082.25;5111540;28;19930;-90
2023/05/02 12:28:49;;;;;;;;;;;;;;;23.24;28.03;100072.41;5112039;28;19920;-85
2023/05/02 12:31:15;;;;;;;;;;;;;;;22.73;26.66;100076.44;5112129;28;19915;-87
2023/05/02 12:33:41;;;;;;;;;;;;;;;22.71;28.49;100076.53;5111819;28;19934;-85